Time;durP1;ratioP1;P1;durP2;ratioP2;P2;SDS_P1;SDS_P2;PMS_P1;PMS_P2;Temp;Humidity;BMP_temperature;BMP_pressure;BME280_temperature;BME280_humidity;BME280_pressure;Samples;Min_cycle;Max_cycle;Signal;HPM_P1;HPM_P2
2022/11/08 00:19:52;;;;;;;15.48;6.18;;;14.10;62.80;;;;;;21171760;28;20047;-70
2022/11/08 00:29:54;;;;;;;13.85;6.75;;;14.00;62.90;;;;;;21170776;28;20044;-68
2022/11/08 00:39:55;;;;;;;15.80;5.88;;;13.90;63.40;;;;;;21170805;28;20044;-70
2022/11/08 00:49:56;;;;;;;11.52;6.30;;;13.80;63.80;;;;;;21168466;28;20060;-66
2022/11/08 00:59:58;;;;;;;14.65;6.95;;;13.70;64.10;;;;;;21168150;28;20086;-70
2022/11/08 01:09:59;;;;;;;9.75;5.85;;;13.60;64.50;;;;;;21169105;28;20096;-69
2022/11/08 01:20:01;;;;;;;15.23;6.85;;;13.60;64.20;;;;;;21167037;28;20100;-70
2022/11/08 01:30:04;;;;;;;11.15;7.15;;;13.50;64.40;;;;;;21165891;28;20048;-70
2022/11/08 01:40:06;;;;;;;16.75;8.10;;;13.40;64.70;;;;;;21166166;28;20048;-69
2022/11/08 01:50:15;;;;;;;13.52;7.22;;;13.40;64.60;;;;;;21165004;28;20518;-69
2022/11/08 02:00:17;;;;;;;17.73;8.05;;;13.50;64.60;;;;;;21164490;28;20051;-69
2022/11/08 02:10:21;;;;;;;11.60;7.28;;;13.40;64.80;;;;;;21170978;28;20052;-68
2022/11/08 02:20:22;;;;;;;15.30;7.50;;;13.30;64.80;;;;;;21164362;28;20044;-69
2022/11/08 02:30:24;;;;;;;13.25;7.40;;;13.40;64.80;;;;;;21166020;28;20060;-69
2022/11/08 02:40:25;;;;;;;14.38;7.97;;;13.40;64.90;;;;;;21182078;28;20476;-69
2022/11/08 02:50:27;;;;;;;13.25;7.90;;;13.30;65.10;;;;;;21178817;28;20060;-67
2022/11/08 03:00:29;;;;;;;13.93;8.15;;;13.40;64.70;;;;;;21179100;28;20044;-66
2022/11/08 03:10:33;;;;;;;14.50;8.00;;;13.30;64.80;;;;;;21177874;28;20070;-70
2022/11/08 03:20:35;;;;;;;15.85;7.50;;;13.20;64.80;;;;;;21176249;28;20044;-69
2022/11/08 03:30:36;;;;;;;11.48;7.35;;;13.20;64.70;;;;;;21176117;28;20415;-69
2022/11/08 03:40:39;;;;;;;15.63;7.78;;;13.30;63.70;;;;;;21176064;28;20380;-68
2022/11/08 03:50:40;;;;;;;11.30;6.63;;;13.30;63.40;;;;;;21174011;28;20105;-71
2022/11/08 04:00:42;;;;;;;11.43;6.45;;;13.20;63.30;;;;;;21174107;28;20498;-67
2022/11/08 04:10:44;;;;;;;11.00;6.18;;;13.20;63.40;;;;;;21172698;28;20161;-68
2022/11/08 04:31:14;;;;;;;13.20;6.97;;;13.10;63.80;;;;;;21171725;28;20502;-67
2022/11/08 04:41:20;;;;;;;10.15;6.38;;;13.00;64.00;;;;;;21172741;28;20124;-70
2022/11/08 04:51:27;;;;;;;12.90;6.03;;;12.80;64.40;;;;;;21169662;28;20047;-71
2022/11/08 05:01:30;;;;;;;10.52;6.57;;;12.90;64.50;;;;;;21167994;28;20062;-71
2022/11/08 05:11:32;;;;;;;8.45;5.25;;;12.90;64.30;;;;;;21169611;28;20051;-70
2022/11/08 05:31:56;;;;;;;12.93;5.75;;;12.90;64.30;;;;;;21167669;28;20227;-70
2022/11/08 05:41:58;;;;;;;9.57;5.47;;;12.90;63.90;;;;;;21166438;28;20040;-70
2022/11/08 05:52:00;;;;;;;12.75;6.30;;;13.00;63.60;;;;;;21165133;28;20411;-67
2022/11/08 06:02:02;;;;;;;10.50;5.90;;;12.90;63.60;;;;;;21165641;28;20393;-68
2022/11/08 06:12:04;;;;;;;14.30;6.03;;;12.90;63.50;;;;;;21163023;28;20047;-70
2022/11/08 06:22:06;;;;;;;12.60;6.20;;;12.90;63.80;;;;;;21163577;28;20078;-69
2022/11/08 06:32:09;;;;;;;13.05;5.40;;;12.70;64.00;;;;;;21163412;28;20099;-70
2022/11/08 06:42:10;;;;;;;9.10;5.47;;;12.90;63.40;;;;;;21163477;28;20044;-70
2022/11/08 06:52:12;;;;;;;10.05;5.72;;;12.90;62.70;;;;;;21161265;28;20124;-70
2022/11/08 07:02:14;;;;;;;12.40;5.63;;;12.90;62.30;;;;;;21161612;28;20040;-70
2022/11/08 07:12:15;;;;;;;10.68;5.18;;;12.90;62.10;;;;;;21161566;28;20062;-71
2022/11/08 07:22:17;;;;;;;9.48;5.32;;;12.90;61.70;;;;;;21172696;28;20444;-72
2022/11/08 07:32:19;;;;;;;9.90;4.95;;;13.00;61.20;;;;;;21178148;28;20113;-70
2022/11/08 07:42:21;;;;;;;13.68;5.15;;;13.00;60.90;;;;;;21177136;28;20056;-70
2022/11/08 07:52:23;;;;;;;8.45;4.63;;;13.20;60.50;;;;;;21174240;28;20161;-65
2022/11/08 08:02:24;;;;;;;10.88;5.05;;;13.20;60.30;;;;;;21173607;28;20047;-69
2022/11/08 08:12:26;;;;;;;14.75;6.13;;;13.20;59.60;;;;;;21173459;28;20521;-69
2022/11/08 08:22:29;;;;;;;9.18;5.50;;;13.30;59.90;;;;;;21171780;28;20107;-67
2022/11/08 08:32:31;;;;;;;15.57;5.35;;;13.50;58.50;;;;;;21169209;28;20043;-69
2022/11/08 08:42:33;;;;;;;6.70;4.50;;;13.50;58.40;;;;;;21169889;28;20101;-66
2022/11/08 08:52:35;;;;;;;13.90;5.03;;;13.60;57.60;;;;;;21169160;28;20051;-69
2022/11/08 09:02:37;;;;;;;9.52;4.72;;;13.70;57.40;;;;;;21169136;28;20044;-69
2022/11/08 09:12:39;;;;;;;16.10;5.22;;;13.80;57.40;;;;;;21168455;28;20431;-67
2022/11/08 09:22:41;;;;;;;8.43;5.35;;;13.80;57.40;;;;;;21165036;28;20051;-65
2022/11/08 09:32:42;;;;;;;10.38;5.03;;;13.90;57.20;;;;;;21161440;28;20052;-67
2022/11/08 09:42:59;;;;;;;13.23;5.28;;;14.10;57.20;;;;;;21167333;28;20048;-67
2022/11/08 09:53:20;;;;;;;11.02;4.97;;;14.10;56.60;;;;;;21163945;28;20142;-67
2022/11/08 10:03:23;;;;;;;11.68;4.57;;;14.30;56.60;;;;;;21167629;28;20507;-68
2022/11/08 10:13:45;;;;;;;8.55;5.13;;;14.40;56.70;;;;;;21169577;28;20116;-74
2022/11/08 10:24:10;;;;;;;10.55;4.38;;;14.70;56.30;;;;;;21163259;28;20075;-59
2022/11/08 10:34:14;;;;;;;;;;;15.60;59.40;;;;;;21159653;28;20408;-74
2022/11/08 10:44:21;;;;;;;22.92;7.68;;;15.80;53.30;;;;;;21159333;28;19924;-62
2022/11/08 10:54:50;;;;;;;14.68;5.93;;;15.50;54.70;;;;;;21164941;28;20048;-66
2022/11/08 11:04:53;;;;;;;11.75;5.82;;;15.40;54.80;;;;;;21176180;28;20480;-69
2022/11/08 11:14:58;;;;;;;12.43;5.40;;;15.50;55.40;;;;;;21174445;28;20112;-64
2022/11/08 11:25:14;;;;;;;16.30;6.45;;;15.60;55.50;;;;;;21174386;28;20062;-68
2022/11/08 11:35:16;;;;;;;12.77;5.63;;;15.90;55.10;;;;;;21174702;28;20492;-67
2022/11/08 11:45:17;;;;;;;13.73;6.30;;;16.00;55.20;;;;;;21173121;28;20047;-65
2022/11/08 11:55:33;;;;;;;14.50;6.22;;;17.00;54.50;;;;;;21170330;28;20060;-68
2022/11/08 12:05:44;;;;;;;21.00;8.57;;;16.80;54.90;;;;;;21170486;28;20446;-66
2022/11/08 12:16:15;;;;;;;16.55;7.90;;;16.70;55.40;;;;;;21170098;28;20056;-65
2022/11/08 12:26:16;;;;;;;14.07;7.45;;;16.50;55.60;;;;;;21171088;28;20075;-75
2022/11/08 12:36:23;;;;;;;16.00;8.15;;;16.30;56.70;;;;;;21171941;28;20044;-69
2022/11/08 12:46:29;;;;;;;9.13;4.32;;;16.20;59.40;;;;;;21168343;28;20047;-74
2022/11/08 12:56:40;;;;;;;9.77;3.97;;;16.40;65.60;;;;;;21165573;28;20043;-66
2022/11/08 13:06:58;;;;;;;16.98;7.68;;;16.70;68.30;;;;;;21167345;28;20047;-65
2022/11/08 13:17:14;;;;;;;17.65;11.95;;;17.20;66.00;;;;;;21168328;28;20104;-64
2022/11/08 13:27:34;;;;;;;17.35;9.35;;;16.40;64.00;;;;;;21169311;28;20083;-66
2022/11/08 13:37:44;;;;;;;20.00;9.27;;;16.00;65.60;;;;;;21167542;28;20047;-65
2022/11/08 13:47:52;;;;;;;13.43;8.68;;;15.90;67.40;;;;;;21168905;28;20062;-65
2022/11/08 13:57:57;;;;;;;15.43;8.73;;;15.90;67.00;;;;;;21165868;28;20043;-65
2022/11/08 14:08:13;;;;;;;17.52;9.85;;;15.80;66.90;;;;;;21163938;28;20052;-65
2022/11/08 14:18:33;;;;;;;13.45;7.97;;;16.00;67.20;;;;;;21163716;28;20144;-67
2022/11/08 14:28:37;;;;;;;13.50;8.38;;;16.00;67.30;;;;;;21161481;28;20058;-64
2022/11/08 14:38:48;;;;;;;10.40;7.10;;;16.00;67.90;;;;;;21162438;28;20101;-65
2022/11/08 14:48:53;;;;;;;13.27;9.23;;;16.10;67.70;;;;;;21163009;28;20503;-65
2022/11/08 14:58:55;;;;;;;23.50;15.13;;;16.20;67.50;;;;;;21161186;28;20127;-65
2022/11/08 15:08:57;;;;;;;12.60;7.93;;;16.20;67.10;;;;;;21161320;28;20155;-65
2022/11/08 15:19:31;;;;;;;6.70;3.25;;;16.40;66.80;;;;;;21160730;28;20100;-65
2022/11/08 15:30:05;;;;;;;4.90;3.70;;;16.60;65.80;;;;;;21160910;28;20547;-63
2022/11/08 15:40:30;;;;;;;10.93;3.27;;;16.70;64.80;;;;;;21166823;28;20915;-65
2022/11/08 15:50:33;;;;;;;4.82;2.75;;;16.90;64.60;;;;;;21173854;28;20130;-65
2022/11/08 16:00:37;;;;;;;5.28;2.60;;;16.90;64.90;;;;;;21174089;28;20764;-65
2022/11/08 16:10:47;;;;;;;9.70;2.53;;;17.00;64.80;;;;;;21173313;28;20055;-64
2022/11/08 16:20:50;;;;;;;6.72;2.55;;;17.00;64.60;;;;;;21172334;28;20180;-63
2022/11/08 16:30:52;;;;;;;5.68;2.28;;;17.00;65.20;;;;;;21171255;28;20052;-63
2022/11/08 16:40:55;;;;;;;5.65;2.20;;;16.90;65.70;;;;;;21170583;28;20069;-65
2022/11/08 16:50:59;;;;;;;8.07;2.47;;;16.90;66.00;;;;;;21167346;28;20087;-65
2022/11/08 17:01:03;;;;;;;3.87;2.17;;;16.90;66.00;;;;;;21168972;28;20050;-64
2022/11/08 17:11:05;;;;;;;9.05;2.33;;;16.90;66.20;;;;;;21168681;28;20047;-64
2022/11/08 17:21:09;;;;;;;5.35;2.70;;;16.90;66.00;;;;;;21166698;28;20043;-65
2022/11/08 17:31:16;;;;;;;5.88;2.35;;;16.80;66.10;;;;;;21166158;28;20055;-64
2022/11/08 17:41:18;;;;;;;3.53;1.70;;;16.90;65.90;;;;;;21165464;28;20051;-64
2022/11/08 17:51:20;;;;;;;4.97;2.63;;;16.90;66.00;;;;;;21163445;28;20101;-65
2022/11/08 18:01:21;;;;;;;4.25;2.10;;;16.90;66.00;;;;;;21163729;28;20051;-67
2022/11/08 18:11:24;;;;;;;4.57;2.00;;;16.80;65.90;;;;;;21164373;28;20104;-63
2022/11/08 18:21:26;;;;;;;4.30;2.58;;;16.80;66.20;;;;;;21162959;28;20052;-62
2022/11/08 18:31:29;;;;;;;3.95;2.70;;;16.80;66.30;;;;;;21162795;28;20533;-66
2022/11/08 18:41:32;;;;;;;9.07;5.80;;;16.70;66.50;;;;;;21161564;28;20055;-66
2022/11/08 18:51:34;;;;;;;8.48;3.00;;;16.70;66.40;;;;;;21160843;28;20056;-65
2022/11/08 19:01:35;;;;;;;11.07;7.35;;;16.70;66.30;;;;;;21161356;28;20047;-63
2022/11/08 19:11:37;;;;;;;8.07;4.32;;;16.70;65.90;;;;;;21163688;28;20081;-63
2022/11/08 19:21:41;;;;;;;9.65;4.63;;;16.70;66.60;;;;;;21177829;28;20476;-70
2022/11/08 19:31:44;;;;;;;;;;;16.70;67.00;;;;;;21158260;28;20116;-63
2022/11/08 19:41:46;;;;;;;12.23;5.85;;;16.70;66.70;;;;;;21176372;28;19920;-67
2022/11/08 19:51:47;;;;;;;11.23;5.85;;;16.60;66.70;;;;;;21174732;28;20515;-67
2022/11/08 20:01:49;;;;;;;10.82;6.00;;;16.60;66.70;;;;;;21175173;28;20044;-72
2022/11/08 20:11:50;;;;;;;8.23;5.13;;;16.60;66.80;;;;;;21155878;28;20052;-70
2022/11/08 20:21:56;;;;;;;11.85;5.72;;;16.60;66.80;;;;;;21173086;28;20039;-71
2022/11/08 20:31:58;;;;;;;16.85;9.52;;;16.60;66.80;;;;;;21170384;28;20130;-64
2022/11/08 20:42:00;;;;;;;14.85;8.52;;;16.60;67.10;;;;;;21169694;28;20361;-64
2022/11/08 20:52:02;;;;;;;13.48;8.00;;;16.60;67.20;;;;;;21168006;28;20152;-65
2022/11/08 21:02:05;;;;;;;21.33;9.52;;;16.60;66.90;;;;;;21167822;28;20051;-63
2022/11/08 21:12:07;;;;;;;10.05;5.45;;;16.50;66.90;;;;;;21167592;28;20268;-64
2022/11/08 21:22:13;;;;;;;8.80;4.75;;;16.50;66.70;;;;;;21166501;28;20048;-64
2022/11/08 21:32:16;;;;;;;4.75;3.45;;;16.50;68.30;;;;;;21166421;28;20069;-66
2022/11/08 21:42:18;;;;;;;6.10;2.92;;;16.40;68.90;;;;;;21166228;28;20051;-63
2022/11/08 21:52:19;;;;;;;8.25;3.38;;;16.30;69.70;;;;;;21164581;28;20051;-66
2022/11/08 22:02:21;;;;;;;6.20;3.40;;;16.20;70.70;;;;;;21164366;28;20484;-63
2022/11/08 22:12:23;;;;;;;5.07;2.88;;;16.20;71.80;;;;;;21164302;28;20052;-64
2022/11/08 22:22:25;;;;;;;9.73;3.70;;;16.20;72.00;;;;;;21164538;28;20048;-66
2022/11/08 22:32:26;;;;;;;7.13;3.50;;;16.20;73.70;;;;;;21163403;28;20054;-64
2022/11/08 22:42:28;;;;;;;6.95;4.20;;;15.90;76.50;;;;;;21162489;28;20043;-65
2022/11/08 22:52:29;;;;;;;6.45;4.78;;;16.00;77.10;;;;;;21172212;28;20104;-63
2022/11/08 23:02:31;;;;;;;9.52;6.15;;;15.90;77.70;;;;;;21160795;28;20054;-64
2022/11/08 23:33:13;;;;;;;22.60;12.02;;;15.80;78.80;;;;;;21176088;28;20047;-68
2022/11/08 23:53:38;;;;;;;16.83;11.70;;;15.70;79.50;;;;;;21172470;28;20094;-63
